sensor_id;sensor_type;location;lat;lon;timestamp;pressure;altitude;pressure_sealevel;temperature;humidity
56568;BME280;42456;49.956;20.004;2023-02-10T00:01:24;100016.65;;;-7.32;72.36
56568;BME280;42456;49.956;20.004;2023-02-10T00:03:51;100015.59;;;-7.37;72.43
56568;BME280;42456;49.956;20.004;2023-02-10T00:06:19;100010.79;;;-7.42;72.34
56568;BME280;42456;49.956;20.004;2023-02-10T00:08:48;100000.96;;;-7.49;72.13
56568;BME280;42456;49.956;20.004;2023-02-10T00:11:15;99998.98;;;-7.56;72.17
56568;BME280;42456;49.956;20.004;2023-02-10T00:13:43;99991.80;;;-7.62;72.27
56568;BME280;42456;49.956;20.004;2023-02-10T00:16:14;99992.67;;;-7.63;72.70
56568;BME280;42456;49.956;20.004;2023-02-10T00:18:42;99990.88;;;-7.63;73.03
56568;BME280;42456;49.956;20.004;2023-02-10T00:21:13;99994.61;;;-7.64;73.02
56568;BME280;42456;49.956;20.004;2023-02-10T00:23:41;99995.71;;;-7.62;73.03
56568;BME280;42456;49.956;20.004;2023-02-10T00:26:10;99995.14;;;-7.59;73.49
56568;BME280;42456;49.956;20.004;2023-02-10T00:28:37;99998.02;;;-7.57;73.41
56568;BME280;42456;49.956;20.004;2023-02-10T00:31:09;100005.38;;;-7.57;73.27
56568;BME280;42456;49.956;20.004;2023-02-10T00:33:37;100003.69;;;-7.59;73.26
56568;BME280;42456;49.956;20.004;2023-02-10T00:36:05;100007.70;;;-7.58;73.14
56568;BME280;42456;49.956;20.004;2023-02-10T00:38:33;100009.19;;;-7.56;73.74
56568;BME280;42456;49.956;20.004;2023-02-10T00:41:08;100012.66;;;-7.55;73.53
56568;BME280;42456;49.956;20.004;2023-02-10T00:43:36;100019.73;;;-7.53;73.50
56568;BME280;42456;49.956;20.004;2023-02-10T00:46:03;100026.32;;;-7.53;73.80
56568;BME280;42456;49.956;20.004;2023-02-10T00:48:30;100026.59;;;-7.56;73.56
56568;BME280;42456;49.956;20.004;2023-02-10T00:50:57;100024.13;;;-7.57;73.53
56568;BME280;42456;49.956;20.004;2023-02-10T00:53:24;100028.72;;;-7.56;73.74
56568;BME280;42456;49.956;20.004;2023-02-10T00:55:51;100033.94;;;-7.53;74.20
56568;BME280;42456;49.956;20.004;2023-02-10T00:58:20;100026.60;;;-7.49;74.32
56568;BME280;42456;49.956;20.004;2023-02-10T01:00:48;100017.98;;;-7.49;74.09
56568;BME280;42456;49.956;20.004;2023-02-10T01:03:15;100014.39;;;-7.51;73.71
56568;BME280;42456;49.956;20.004;2023-02-10T01:05:42;100025.13;;;-7.53;73.76
56568;BME280;42456;49.956;20.004;2023-02-10T01:08:12;100033.41;;;-7.52;73.86
56568;BME280;42456;49.956;20.004;2023-02-10T01:10:40;100029.31;;;-7.52;73.92
56568;BME280;42456;49.956;20.004;2023-02-10T01:13:08;100027.80;;;-7.55;73.57
56568;BME280;42456;49.956;20.004;2023-02-10T01:15:35;100025.11;;;-7.59;73.69
56568;BME280;42456;49.956;20.004;2023-02-10T01:18:02;100026.77;;;-7.61;73.60
56568;BME280;42456;49.956;20.004;2023-02-10T01:20:29;100021.17;;;-7.63;73.89
56568;BME280;42456;49.956;20.004;2023-02-10T01:22:56;100014.55;;;-7.63;74.17
56568;BME280;42456;49.956;20.004;2023-02-10T01:25:23;100009.89;;;-7.63;74.29
56568;BME280;42456;49.956;20.004;2023-02-10T01:27:49;100003.48;;;-7.64;74.02
56568;BME280;42456;49.956;20.004;2023-02-10T01:30:16;99993.50;;;-7.65;74.01
56568;BME280;42456;49.956;20.004;2023-02-10T01:32:43;99991.71;;;-7.66;74.14
56568;BME280;42456;49.956;20.004;2023-02-10T01:35:10;99992.30;;;-7.66;74.08
56568;BME280;42456;49.956;20.004;2023-02-10T01:37:36;99995.94;;;-7.67;74.09
56568;BME280;42456;49.956;20.004;2023-02-10T01:40:04;99988.86;;;-7.69;74.07
56568;BME280;42456;49.956;20.004;2023-02-10T01:42:31;99987.13;;;-7.73;74.13
56568;BME280;42456;49.956;20.004;2023-02-10T01:45:39;99989.93;;;-7.73;74.09
56568;BME280;42456;49.956;20.004;2023-02-10T01:48:08;99990.61;;;-7.71;74.30
56568;BME280;42456;49.956;20.004;2023-02-10T01:50:42;99978.66;;;-7.71;74.32
56568;BME280;42456;49.956;20.004;2023-02-10T01:53:11;99971.03;;;-7.73;74.12
56568;BME280;42456;49.956;20.004;2023-02-10T01:55:43;99957.81;;;-7.75;73.99
56568;BME280;42456;49.956;20.004;2023-02-10T01:58:14;99950.60;;;-7.75;74.20
56568;BME280;42456;49.956;20.004;2023-02-10T02:00:41;99957.02;;;-7.71;74.45
56568;BME280;42456;49.956;20.004;2023-02-10T02:03:09;99962.88;;;-7.69;74.38
56568;BME280;42456;49.956;20.004;2023-02-10T02:05:38;99966.48;;;-7.70;74.26
56568;BME280;42456;49.956;20.004;2023-02-10T02:10:59;99961.44;;;-7.75;74.00
56568;BME280;42456;49.956;20.004;2023-02-10T02:13:45;99959.43;;;-7.79;74.03
56568;BME280;42456;49.956;20.004;2023-02-10T02:19:12;99957.01;;;-7.77;74.53
56568;BME280;42456;49.956;20.004;2023-02-10T02:21:55;99946.95;;;-7.74;74.80
56568;BME280;42456;49.956;20.004;2023-02-10T02:27:25;99939.27;;;-7.73;74.43
56568;BME280;42456;49.956;20.004;2023-02-10T02:32:48;99947.55;;;-7.71;74.44
56568;BME280;42456;49.956;20.004;2023-02-10T02:35:20;99945.33;;;-7.71;74.23
56568;BME280;42456;49.956;20.004;2023-02-10T02:37:48;99950.83;;;-7.75;74.14
56568;BME280;42456;49.956;20.004;2023-02-10T02:40:16;99950.61;;;-7.76;74.16
56568;BME280;42456;49.956;20.004;2023-02-10T02:42:44;99952.88;;;-7.75;74.41
56568;BME280;42456;49.956;20.004;2023-02-10T02:45:15;99952.02;;;-7.73;74.57
56568;BME280;42456;49.956;20.004;2023-02-10T03:01:14;99941.03;;;-7.58;74.49
56568;BME280;42456;49.956;20.004;2023-02-10T03:03:41;99943.13;;;-7.53;74.54
56568;BME280;42456;49.956;20.004;2023-02-10T03:06:08;99951.82;;;-7.49;74.82
56568;BME280;42456;49.956;20.004;2023-02-10T03:08:38;99941.10;;;-7.44;74.70
56568;BME280;42456;49.956;20.004;2023-02-10T03:11:06;99945.05;;;-7.38;74.78
56568;BME280;42456;49.956;20.004;2023-02-10T03:13:33;99946.38;;;-7.33;74.55
56568;BME280;42456;49.956;20.004;2023-02-10T03:16:00;99947.59;;;-7.27;74.86
56568;BME280;42456;49.956;20.004;2023-02-10T03:18:27;99948.99;;;-7.20;74.71
56568;BME280;42456;49.956;20.004;2023-02-10T03:20:53;99949.08;;;-7.13;74.83
56568;BME280;42456;49.956;20.004;2023-02-10T03:23:21;99940.44;;;-7.06;74.96
56568;BME280;42456;49.956;20.004;2023-02-10T03:25:48;99938.11;;;-6.98;74.96
56568;BME280;42456;49.956;20.004;2023-02-10T03:28:15;99938.27;;;-6.91;74.87
56568;BME280;42456;49.956;20.004;2023-02-10T03:30:42;99938.84;;;-6.84;74.95
56568;BME280;42456;49.956;20.004;2023-02-10T03:33:14;99943.05;;;-6.76;74.72
56568;BME280;42456;49.956;20.004;2023-02-10T03:35:43;99942.42;;;-6.70;74.66
56568;BME280;42456;49.956;20.004;2023-02-10T03:38:11;99948.48;;;-6.64;74.67
56568;BME280;42456;49.956;20.004;2023-02-10T03:40:38;99944.77;;;-6.59;74.48
56568;BME280;42456;49.956;20.004;2023-02-10T03:43:05;99946.41;;;-6.55;74.61
56568;BME280;42456;49.956;20.004;2023-02-10T03:45:32;99952.74;;;-6.51;74.47
56568;BME280;42456;49.956;20.004;2023-02-10T03:47:59;99951.11;;;-6.48;74.52
56568;BME280;42456;49.956;20.004;2023-02-10T03:50:26;99953.08;;;-6.45;74.26
56568;BME280;42456;49.956;20.004;2023-02-10T03:52:53;99948.67;;;-6.43;74.24
56568;BME280;42456;49.956;20.004;2023-02-10T03:55:19;99949.41;;;-6.42;73.88
56568;BME280;42456;49.956;20.004;2023-02-10T03:57:47;99950.39;;;-6.42;73.82
56568;BME280;42456;49.956;20.004;2023-02-10T04:00:15;99954.34;;;-6.41;73.80
56568;BME280;42456;49.956;20.004;2023-02-10T04:02:42;99944.86;;;-6.40;73.69
56568;BME280;42456;49.956;20.004;2023-02-10T04:05:10;99951.20;;;-6.41;73.71
56568;BME280;42456;49.956;20.004;2023-02-10T04:07:37;99955.52;;;-6.41;73.53
56568;BME280;42456;49.956;20.004;2023-02-10T04:10:05;99951.31;;;-6.39;73.60
56568;BME280;42456;49.956;20.004;2023-02-10T04:12:32;99960.59;;;-6.38;73.82
56568;BME280;42456;49.956;20.004;2023-02-10T04:14:59;99960.88;;;-6.37;73.80
56568;BME280;42456;49.956;20.004;2023-02-10T04:17:25;99958.62;;;-6.37;73.68
56568;BME280;42456;49.956;20.004;2023-02-10T04:19:52;99956.98;;;-6.37;73.47
56568;BME280;42456;49.956;20.004;2023-02-10T04:22:19;99957.37;;;-6.39;73.49
56568;BME280;42456;49.956;20.004;2023-02-10T04:24:46;99961.31;;;-6.41;73.63
56568;BME280;42456;49.956;20.004;2023-02-10T04:27:12;99965.55;;;-6.40;73.48
56568;BME280;42456;49.956;20.004;2023-02-10T04:29:39;99973.02;;;-6.38;73.70
56568;BME280;42456;49.956;20.004;2023-02-10T04:32:08;99970.11;;;-6.37;73.92
56568;BME280;42456;49.956;20.004;2023-02-10T04:34:34;99974.88;;;-6.39;73.63
56568;BME280;42456;49.956;20.004;2023-02-10T04:37:02;99977.70;;;-6.41;73.72
56568;BME280;42456;49.956;20.004;2023-02-10T04:39:28;99970.20;;;-6.44;73.52
56568;BME280;42456;49.956;20.004;2023-02-10T04:41:55;99977.19;;;-6.48;73.41
56568;BME280;42456;49.956;20.004;2023-02-10T04:44:22;99971.11;;;-6.53;73.17
56568;BME280;42456;49.956;20.004;2023-02-10T04:46:49;99974.98;;;-6.59;73.22
56568;BME280;42456;49.956;20.004;2023-02-10T04:49:18;99971.39;;;-6.64;73.21
56568;BME280;42456;49.956;20.004;2023-02-10T04:51:44;99977.33;;;-6.70;73.22
56568;BME280;42456;49.956;20.004;2023-02-10T04:54:11;99981.33;;;-6.76;73.09
56568;BME280;42456;49.956;20.004;2023-02-10T04:56:38;99987.08;;;-6.82;73.01
56568;BME280;42456;49.956;20.004;2023-02-10T04:59:05;99993.19;;;-6.89;73.06
56568;BME280;42456;49.956;20.004;2023-02-10T05:01:33;99993.96;;;-6.97;73.44
56568;BME280;42456;49.956;20.004;2023-02-10T05:04:00;99998.17;;;-7.07;72.93
56568;BME280;42456;49.956;20.004;2023-02-10T05:06:27;99997.93;;;-7.16;73.05
56568;BME280;42456;49.956;20.004;2023-02-10T05:08:54;99995.20;;;-7.25;73.08
56568;BME280;42456;49.956;20.004;2023-02-10T05:11:21;99997.84;;;-7.29;73.36
56568;BME280;42456;49.956;20.004;2023-02-10T05:13:48;99997.46;;;-7.32;73.38
56568;BME280;42456;49.956;20.004;2023-02-10T05:16:16;100001.36;;;-7.33;73.29
56568;BME280;42456;49.956;20.004;2023-02-10T05:18:44;100006.87;;;-7.32;73.34
56568;BME280;42456;49.956;20.004;2023-02-10T05:21:12;100008.38;;;-7.33;73.28
56568;BME280;42456;49.956;20.004;2023-02-10T05:23:40;100001.57;;;-7.34;73.32
56568;BME280;42456;49.956;20.004;2023-02-10T05:26:07;100002.23;;;-7.36;73.23
56568;BME280;42456;49.956;20.004;2023-02-10T05:28:34;100003.58;;;-7.38;73.46
56568;BME280;42456;49.956;20.004;2023-02-10T05:31:02;100011.27;;;-7.40;73.23
56568;BME280;42456;49.956;20.004;2023-02-10T05:33:32;100009.54;;;-7.40;73.45
56568;BME280;42456;49.956;20.004;2023-02-10T05:36:00;100013.84;;;-7.40;73.29
56568;BME280;42456;49.956;20.004;2023-02-10T05:38:27;100016.23;;;-7.41;73.61
56568;BME280;42456;49.956;20.004;2023-02-10T05:40:54;100015.27;;;-7.43;73.40
56568;BME280;42456;49.956;20.004;2023-02-10T05:43:21;100020.96;;;-7.46;73.41
56568;BME280;42456;49.956;20.004;2023-02-10T05:45:48;100023.84;;;-7.47;73.73
56568;BME280;42456;49.956;20.004;2023-02-10T05:48:15;100025.73;;;-7.46;73.53
56568;BME280;42456;49.956;20.004;2023-02-10T05:50:42;100021.01;;;-7.48;73.74
56568;BME280;42456;49.956;20.004;2023-02-10T05:53:09;100015.44;;;-7.49;73.33
56568;BME280;42456;49.956;20.004;2023-02-10T05:55:36;100016.02;;;-7.50;73.76
56568;BME280;42456;49.956;20.004;2023-02-10T05:58:02;100022.39;;;-7.49;73.68
56568;BME280;42456;49.956;20.004;2023-02-10T06:00:30;100027.42;;;-7.50;73.99
56568;BME280;42456;49.956;20.004;2023-02-10T06:02:57;100026.06;;;-7.52;73.98
56568;BME280;42456;49.956;20.004;2023-02-10T06:05:24;100034.55;;;-7.55;74.00
56568;BME280;42456;49.956;20.004;2023-02-10T06:07:51;100032.63;;;-7.59;74.08
56568;BME280;42456;49.956;20.004;2023-02-10T06:10:21;100034.93;;;-7.63;74.06
56568;BME280;42456;49.956;20.004;2023-02-10T06:12:49;100026.34;;;-7.65;74.02
56568;BME280;42456;49.956;20.004;2023-02-10T06:15:16;100026.15;;;-7.70;74.16
56568;BME280;42456;49.956;20.004;2023-02-10T06:17:43;100031.56;;;-7.76;73.94
56568;BME280;42456;49.956;20.004;2023-02-10T06:20:10;100029.14;;;-7.81;74.06
56568;BME280;42456;49.956;20.004;2023-02-10T06:22:37;100028.05;;;-7.85;74.30
56568;BME280;42456;49.956;20.004;2023-02-10T06:25:05;100026.86;;;-7.92;74.26
56568;BME280;42456;49.956;20.004;2023-02-10T06:27:32;100032.06;;;-7.98;74.13
56568;BME280;42456;49.956;20.004;2023-02-10T06:29:58;100042.02;;;-8.02;74.42
56568;BME280;42456;49.956;20.004;2023-02-10T06:32:25;100043.69;;;-8.02;74.58
56568;BME280;42456;49.956;20.004;2023-02-10T06:34:52;100041.60;;;-8.03;74.61
56568;BME280;42456;49.956;20.004;2023-02-10T06:37:19;100033.84;;;-8.03;74.40
56568;BME280;42456;49.956;20.004;2023-02-10T06:39:46;100038.04;;;-8.02;74.34
56568;BME280;42456;49.956;20.004;2023-02-10T06:42:13;100042.04;;;-7.97;74.42
56568;BME280;42456;49.956;20.004;2023-02-10T06:44:40;100044.43;;;-7.90;74.49
56568;BME280;42456;49.956;20.004;2023-02-10T06:47:07;100045.02;;;-7.82;74.46
56568;BME280;42456;49.956;20.004;2023-02-10T06:49:34;100043.92;;;-7.69;74.85
56568;BME280;42456;49.956;20.004;2023-02-10T06:52:02;100039.66;;;-7.54;74.98
56568;BME280;42456;49.956;20.004;2023-02-10T06:54:41;100041.91;;;-7.35;75.11
56568;BME280;42456;49.956;20.004;2023-02-10T06:57:09;100043.73;;;-7.16;75.20
56568;BME280;42456;49.956;20.004;2023-02-10T06:59:36;100046.93;;;-6.99;75.10
56568;BME280;42456;49.956;20.004;2023-02-10T07:02:03;100052.92;;;-6.83;74.95
56568;BME280;42456;49.956;20.004;2023-02-10T07:04:31;100052.71;;;-6.67;75.05
56568;BME280;42456;49.956;20.004;2023-02-10T07:06:58;100055.84;;;-6.51;75.01
56568;BME280;42456;49.956;20.004;2023-02-10T07:09:25;100048.52;;;-6.34;74.77
56568;BME280;42456;49.956;20.004;2023-02-10T07:11:52;100045.67;;;-6.18;74.77
56568;BME280;42456;49.956;20.004;2023-02-10T07:14:20;100047.50;;;-6.01;74.46
56568;BME280;42456;49.956;20.004;2023-02-10T07:16:46;100050.58;;;-5.84;74.55
56568;BME280;42456;49.956;20.004;2023-02-10T07:19:14;100049.98;;;-5.68;74.12
56568;BME280;42456;49.956;20.004;2023-02-10T07:21:41;100051.42;;;-5.53;74.15
56568;BME280;42456;49.956;20.004;2023-02-10T07:24:08;100058.40;;;-5.36;73.89
56568;BME280;42456;49.956;20.004;2023-02-10T07:26:36;100063.05;;;-5.22;73.42
56568;BME280;42456;49.956;20.004;2023-02-10T07:29:02;100064.38;;;-5.08;73.03
56568;BME280;42456;49.956;20.004;2023-02-10T07:31:29;100063.85;;;-4.94;72.78
56568;BME280;42456;49.956;20.004;2023-02-10T07:33:56;100058.45;;;-4.80;72.89
56568;BME280;42456;49.956;20.004;2023-02-10T07:36:23;100057.77;;;-4.65;72.47
56568;BME280;42456;49.956;20.004;2023-02-10T07:38:50;100055.69;;;-4.50;72.19
56568;BME280;42456;49.956;20.004;2023-02-10T07:41:17;100053.25;;;-4.30;72.09
56568;BME280;42456;49.956;20.004;2023-02-10T07:43:44;100051.22;;;-4.12;72.16
56568;BME280;42456;49.956;20.004;2023-02-10T07:46:11;100055.17;;;-3.95;72.24
56568;BME280;42456;49.956;20.004;2023-02-10T07:48:38;100061.63;;;-3.78;71.94
56568;BME280;42456;49.956;20.004;2023-02-10T07:51:05;100063.39;;;-3.60;72.24
56568;BME280;42456;49.956;20.004;2023-02-10T07:53:32;100070.58;;;-3.41;72.05
56568;BME280;42456;49.956;20.004;2023-02-10T07:55:59;100072.52;;;-3.22;71.98
56568;BME280;42456;49.956;20.004;2023-02-10T07:58:26;100073.75;;;-3.06;71.26
56568;BME280;42456;49.956;20.004;2023-02-10T08:00:53;100074.61;;;-2.90;71.96
56568;BME280;42456;49.956;20.004;2023-02-10T08:03:20;100075.95;;;-2.73;71.47
56568;BME280;42456;49.956;20.004;2023-02-10T08:05:47;100072.45;;;-2.56;71.41
56568;BME280;42456;49.956;20.004;2023-02-10T08:08:16;100073.77;;;-2.38;71.45
56568;BME280;42456;49.956;20.004;2023-02-10T08:10:43;100072.84;;;-2.20;70.68
56568;BME280;42456;49.956;20.004;2023-02-10T08:13:10;100076.56;;;-2.04;70.18
56568;BME280;42456;49.956;20.004;2023-02-10T08:15:37;100076.83;;;-1.87;70.15
56568;BME280;42456;49.956;20.004;2023-02-10T08:18:04;100076.77;;;-1.71;69.51
56568;BME280;42456;49.956;20.004;2023-02-10T08:20:31;100080.71;;;-1.54;69.30
56568;BME280;42456;49.956;20.004;2023-02-10T08:22:58;100081.68;;;-1.38;69.13
56568;BME280;42456;49.956;20.004;2023-02-10T08:25:26;100083.78;;;-1.23;69.02
56568;BME280;42456;49.956;20.004;2023-02-10T08:27:53;100086.38;;;-1.07;68.46
56568;BME280;42456;49.956;20.004;2023-02-10T08:30:20;100087.63;;;-0.91;68.07
56568;BME280;42456;49.956;20.004;2023-02-10T08:32:47;100088.65;;;-0.76;67.82
56568;BME280;42456;49.956;20.004;2023-02-10T08:35:15;100092.42;;;-0.62;67.78
56568;BME280;42456;49.956;20.004;2023-02-10T08:37:42;100092.17;;;-0.47;67.10
56568;BME280;42456;49.956;20.004;2023-02-10T08:40:09;100101.12;;;-0.34;66.88
56568;BME280;42456;49.956;20.004;2023-02-10T08:42:36;100098.77;;;-0.23;66.52
56568;BME280;42456;49.956;20.004;2023-02-10T08:45:03;100103.80;;;-0.11;66.37
56568;BME280;42456;49.956;20.004;2023-02-10T08:47:33;100097.19;;;0.00;66.39
56568;BME280;42456;49.956;20.004;2023-02-10T08:50:00;100090.86;;;0.12;65.80
56568;BME280;42456;49.956;20.004;2023-02-10T08:52:27;100093.99;;;0.22;65.67
56568;BME280;42456;49.956;20.004;2023-02-10T08:54:54;100088.98;;;0.31;65.33
56568;BME280;42456;49.956;20.004;2023-02-10T08:57:22;100088.52;;;0.41;65.18
56568;BME280;42456;49.956;20.004;2023-02-10T08:59:49;100084.20;;;0.53;64.88
56568;BME280;42456;49.956;20.004;2023-02-10T09:02:16;100083.36;;;0.66;65.09
56568;BME280;42456;49.956;20.004;2023-02-10T09:04:43;100083.42;;;0.78;64.21
56568;BME280;42456;49.956;20.004;2023-02-10T09:07:10;100084.34;;;0.90;64.44
56568;BME280;42456;49.956;20.004;2023-02-10T09:09:40;100094.17;;;0.99;63.59
56568;BME280;42456;49.956;20.004;2023-02-10T09:12:08;100093.86;;;1.07;63.70
56568;BME280;42456;49.956;20.004;2023-02-10T09:14:41;100097.02;;;1.13;63.08
56568;BME280;42456;49.956;20.004;2023-02-10T09:17:08;100098.42;;;1.18;62.95
56568;BME280;42456;49.956;20.004;2023-02-10T09:19:35;100096.35;;;1.22;63.01
56568;BME280;42456;49.956;20.004;2023-02-10T09:22:04;100094.54;;;1.25;61.89
56568;BME280;42456;49.956;20.004;2023-02-10T09:24:31;100094.17;;;1.24;61.51
56568;BME280;42456;49.956;20.004;2023-02-10T09:26:59;100096.25;;;1.24;61.79
56568;BME280;42456;49.956;20.004;2023-02-10T09:29:26;100094.40;;;1.26;61.63
56568;BME280;42456;49.956;20.004;2023-02-10T09:31:53;100100.34;;;1.30;61.49
56568;BME280;42456;49.956;20.004;2023-02-10T09:34:20;100103.30;;;1.34;61.09
56568;BME280;42456;49.956;20.004;2023-02-10T09:36:48;100106.59;;;1.35;61.58
56568;BME280;42456;49.956;20.004;2023-02-10T09:39:15;100105.23;;;1.36;61.22
56568;BME280;42456;49.956;20.004;2023-02-10T09:41:51;100103.51;;;1.37;60.77
56568;BME280;42456;49.956;20.004;2023-02-10T09:44:33;100098.88;;;1.38;60.34
56568;BME280;42456;49.956;20.004;2023-02-10T09:47:38;100089.08;;;1.39;60.23
56568;BME280;42456;49.956;20.004;2023-02-10T09:50:26;100086.16;;;1.44;60.37
56568;BME280;42456;49.956;20.004;2023-02-10T09:53:09;100083.22;;;1.52;60.28
56568;BME280;42456;49.956;20.004;2023-02-10T09:55:46;100084.30;;;1.59;60.53
56568;BME280;42456;49.956;20.004;2023-02-10T09:58:20;100079.45;;;1.66;60.00
56568;BME280;42456;49.956;20.004;2023-02-10T10:00:52;100078.27;;;1.74;59.62
56568;BME280;42456;49.956;20.004;2023-02-10T10:03:34;100078.54;;;1.80;59.08
56568;BME280;42456;49.956;20.004;2023-02-10T10:11:26;100085.84;;;2.04;58.80
56568;BME280;42456;49.956;20.004;2023-02-10T10:13:55;100078.25;;;2.13;58.52
56568;BME280;42456;49.956;20.004;2023-02-10T10:19:17;100074.95;;;2.27;58.42
56568;BME280;42456;49.956;20.004;2023-02-10T10:24:43;100078.11;;;2.38;58.16
56568;BME280;42456;49.956;20.004;2023-02-10T10:30:02;100067.36;;;2.49;57.75
56568;BME280;42456;49.956;20.004;2023-02-10T10:32:48;100065.31;;;2.58;57.87
56568;BME280;42456;49.956;20.004;2023-02-10T10:35:27;100059.60;;;2.69;58.25
56568;BME280;42456;49.956;20.004;2023-02-10T10:37:56;100060.98;;;2.80;58.14
56568;BME280;42456;49.956;20.004;2023-02-10T10:40:31;100063.09;;;2.89;58.10
56568;BME280;42456;49.956;20.004;2023-02-10T10:42:59;100065.21;;;3.05;57.93
56568;BME280;42456;49.956;20.004;2023-02-10T10:45:39;100062.54;;;3.21;57.71
56568;BME280;42456;49.956;20.004;2023-02-10T10:50:38;100061.74;;;3.49;57.17
56568;BME280;42456;49.956;20.004;2023-02-10T10:53:15;100056.89;;;3.57;57.06
56568;BME280;42456;49.956;20.004;2023-02-10T10:55:53;100055.11;;;3.65;56.41
56568;BME280;42456;49.956;20.004;2023-02-10T10:58:31;100059.77;;;3.70;55.98
56568;BME280;42456;49.956;20.004;2023-02-10T11:01:03;100062.89;;;3.75;56.40
56568;BME280;42456;49.956;20.004;2023-02-10T11:03:31;100055.75;;;3.75;55.85
56568;BME280;42456;49.956;20.004;2023-02-10T11:06:06;100051.08;;;3.75;56.17
56568;BME280;42456;49.956;20.004;2023-02-10T11:08:36;100046.38;;;3.78;55.98
56568;BME280;42456;49.956;20.004;2023-02-10T11:11:14;100047.83;;;3.82;55.85
56568;BME280;42456;49.956;20.004;2023-02-10T11:14:03;100039.77;;;3.94;55.92
56568;BME280;42456;49.956;20.004;2023-02-10T11:16:45;100036.23;;;4.02;55.28
56568;BME280;42456;49.956;20.004;2023-02-10T11:19:33;100033.97;;;4.12;55.08
56568;BME280;42456;49.956;20.004;2023-02-10T11:22:16;100033.33;;;4.21;55.34
56568;BME280;42456;49.956;20.004;2023-02-10T11:24:55;100032.88;;;4.24;54.48
56568;BME280;42456;49.956;20.004;2023-02-10T11:27:23;100039.36;;;4.27;54.69
56568;BME280;42456;49.956;20.004;2023-02-10T11:29:57;100035.57;;;4.29;54.28
56568;BME280;42456;49.956;20.004;2023-02-10T11:32:30;100034.13;;;4.33;54.32
56568;BME280;42456;49.956;20.004;2023-02-10T11:35:01;100029.55;;;4.37;54.17
56568;BME280;42456;49.956;20.004;2023-02-10T11:37:38;100025.52;;;4.42;54.35
56568;BME280;42456;49.956;20.004;2023-02-10T11:40:21;100021.58;;;4.47;53.98
56568;BME280;42456;49.956;20.004;2023-02-10T11:42:52;100012.67;;;4.50;53.50
56568;BME280;42456;49.956;20.004;2023-02-10T11:45:28;100013.14;;;4.53;53.62
56568;BME280;42456;49.956;20.004;2023-02-10T11:48:17;100011.96;;;4.57;53.52
56568;BME280;42456;49.956;20.004;2023-02-10T11:50:44;100016.16;;;4.60;53.14
56568;BME280;42456;49.956;20.004;2023-02-10T11:53:24;100019.52;;;4.63;52.74
56568;BME280;42456;49.956;20.004;2023-02-10T12:09:57;100003.44;;;4.82;52.15
56568;BME280;42456;49.956;20.004;2023-02-10T12:12:51;100001.34;;;4.91;51.80
56568;BME280;42456;49.956;20.004;2023-02-10T12:16:07;100002.64;;;4.97;51.35
56568;BME280;42456;49.956;20.004;2023-02-10T12:18:22;100006.73;;;5.02;51.61
56568;BME280;42456;49.956;20.004;2023-02-10T12:20:59;100004.86;;;5.05;51.76
56568;BME280;42456;49.956;20.004;2023-02-10T12:31:59;99991.91;;;4.92;51.53
56568;BME280;42456;49.956;20.004;2023-02-10T12:45:28;100009.34;;;4.64;50.96
56568;BME280;42456;49.956;20.004;2023-02-10T12:48:32;100013.25;;;4.62;51.22
56568;BME280;42456;49.956;20.004;2023-02-10T12:51:07;100012.95;;;4.59;51.25
56568;BME280;42456;49.956;20.004;2023-02-10T12:53:41;100006.53;;;4.57;51.38
56568;BME280;42456;49.956;20.004;2023-02-10T12:59:02;100018.20;;;4.53;51.81
56568;BME280;42456;49.956;20.004;2023-02-10T13:01:37;100027.10;;;4.50;51.65
56568;BME280;42456;49.956;20.004;2023-02-10T13:04:41;100019.95;;;4.48;51.93
56568;BME280;42456;49.956;20.004;2023-02-10T13:07:31;100013.10;;;4.45;51.62
56568;BME280;42456;49.956;20.004;2023-02-10T13:12:42;100032.24;;;4.32;51.95
56568;BME280;42456;49.956;20.004;2023-02-10T13:15:23;100028.54;;;4.23;51.74
56568;BME280;42456;49.956;20.004;2023-02-10T13:17:52;100028.29;;;4.16;52.01
56568;BME280;42456;49.956;20.004;2023-02-10T13:20:43;100018.91;;;4.09;52.32
56568;BME280;42456;49.956;20.004;2023-02-10T13:32:00;100012.73;;;3.84;53.42
56568;BME280;42456;49.956;20.004;2023-02-10T13:34:35;100016.80;;;3.82;53.78
56568;BME280;42456;49.956;20.004;2023-02-10T13:37:10;100017.13;;;3.79;53.99
56568;BME280;42456;49.956;20.004;2023-02-10T13:42:35;100037.05;;;3.67;54.09
56568;BME280;42456;49.956;20.004;2023-02-10T13:45:13;100030.50;;;3.57;54.26
56568;BME280;42456;49.956;20.004;2023-02-10T13:47:52;100024.42;;;3.50;54.13
56568;BME280;42456;49.956;20.004;2023-02-10T13:50:24;100031.17;;;3.44;54.52
56568;BME280;42456;49.956;20.004;2023-02-10T13:53:01;100029.59;;;3.39;54.88
56568;BME280;42456;49.956;20.004;2023-02-10T14:06:03;100035.73;;;2.98;55.31
56568;BME280;42456;49.956;20.004;2023-02-10T14:08:32;100039.39;;;2.87;55.44
56568;BME280;42456;49.956;20.004;2023-02-10T14:11:02;100041.62;;;2.79;55.50
56568;BME280;42456;49.956;20.004;2023-02-10T14:13:39;100047.59;;;2.72;55.84
56568;BME280;42456;49.956;20.004;2023-02-10T14:16:28;100055.81;;;2.64;56.26
56568;BME280;42456;49.956;20.004;2023-02-10T14:18:59;100054.54;;;2.55;56.42
56568;BME280;42456;49.956;20.004;2023-02-10T14:21:26;100055.48;;;2.48;56.27
56568;BME280;42456;49.956;20.004;2023-02-10T14:23:55;100063.09;;;2.42;56.49
56568;BME280;42456;49.956;20.004;2023-02-10T14:26:31;100058.20;;;2.34;56.99
56568;BME280;42456;49.956;20.004;2023-02-10T14:29:03;100055.45;;;2.28;57.05
56568;BME280;42456;49.956;20.004;2023-02-10T14:31:35;100052.02;;;2.22;57.35
56568;BME280;42456;49.956;20.004;2023-02-10T14:34:05;100054.08;;;2.16;58.07
56568;BME280;42456;49.956;20.004;2023-02-10T14:39:26;100062.08;;;2.09;58.43
56568;BME280;42456;49.956;20.004;2023-02-10T14:41:58;100067.80;;;2.08;58.76
56568;BME280;42456;49.956;20.004;2023-02-10T14:44:38;100063.80;;;2.09;59.21
56568;BME280;42456;49.956;20.004;2023-02-10T14:47:06;100058.79;;;2.11;59.55